DLH93T LWSK-EDDF
Flight info
| Callsign | DLH93T |
|---|---|
| Flight time | 2h 1m |
| Altitude | 36000 |
| Route | RAXAD DCT RAMAP DCT OBUTI DCT SIMBA DCT AKINI T161 DEBHI DEBHI1B |
| Aircraft | A320/M-SDE2E3FGIJ1LORWXYZ/HB1 |
Departure
| Time | 2026-05-05 14:15 |
|---|---|
| Airport | Skopje International Airport (LWSK) |
Arrival
| Time | 2026-05-05 16:16 |
|---|---|
| Airport | Frankfurt Main Airport (EDDF) |
| Time | Latitude | Longitude | Altitude | Speed | Heading |
|---|---|---|---|---|---|
| 2026-05-05 13:19 | 41.95995 | 21.62615 | 793 ft | 0 kts | 75° |
| 2026-05-05 14:04 | 41.95989 | 21.62586 | 793 ft | 3 kts | 75° |
| 2026-05-05 14:05 | 41.95986 | 21.62560 | 793 ft | 4 kts | 125° |
| 2026-05-05 14:05 | 41.96006 | 21.62545 | 793 ft | 4 kts | 167° |
| 2026-05-05 14:05 | 41.96031 | 21.62537 | 793 ft | 4 kts | 166° |
| 2026-05-05 14:05 | 41.96050 | 21.62531 | 793 ft | 0 kts | 166° |
| 2026-05-05 14:09 | 41.96032 | 21.62527 | 793 ft | 6 kts | 202° |
| 2026-05-05 14:09 | 41.96010 | 21.62481 | 792 ft | 7 kts | 230° |
| 2026-05-05 14:09 | 41.95945 | 21.62489 | 791 ft | 12 kts | 165° |
| 2026-05-05 14:09 | 41.95857 | 21.62520 | 790 ft | 15 kts | 165° |
| 2026-05-05 14:10 | 41.95744 | 21.62560 | 787 ft | 19 kts | 165° |
| 2026-05-05 14:10 | 41.95628 | 21.62599 | 786 ft | 18 kts | 166° |
| 2026-05-05 14:10 | 41.95505 | 21.62644 | 785 ft | 19 kts | 164° |
| 2026-05-05 14:10 | 41.95382 | 21.62688 | 783 ft | 17 kts | 166° |
| 2026-05-05 14:11 | 41.95264 | 21.62729 | 780 ft | 17 kts | 166° |
| 2026-05-05 14:11 | 41.95168 | 21.62748 | 778 ft | 9 kts | 198° |
| 2026-05-05 14:11 | 41.95140 | 21.62694 | 778 ft | 0 kts | 255° |
| 2026-05-05 14:13 | 41.95137 | 21.62678 | 778 ft | 5 kts | 255° |
| 2026-05-05 14:13 | 41.95124 | 21.62608 | 779 ft | 9 kts | 255° |
| 2026-05-05 14:14 | 41.95107 | 21.62527 | 781 ft | 3 kts | 265° |
| 2026-05-05 14:14 | 41.95124 | 21.62505 | 781 ft | 6 kts | 332° |
| 2026-05-05 14:14 | 41.95134 | 21.62502 | 781 ft | 0 kts | 345° |
| 2026-05-05 14:14 | 41.95231 | 21.62468 | 781 ft | 48 kts | 346° |
| 2026-05-05 14:15 | 41.96069 | 21.62178 | 788 ft | 134 kts | 345° |
| 2026-05-05 14:15 | 41.96759 | 21.61937 | 807 ft | 167 kts | 345° |
| 2026-05-05 14:15 | 41.97893 | 21.61539 | 1429 ft | 168 kts | 345° |
| 2026-05-05 14:15 | 41.99034 | 21.61142 | 2145 ft | 171 kts | 345° |
| 2026-05-05 14:16 | 42.00183 | 21.60793 | 2813 ft | 170 kts | 357° |
| 2026-05-05 14:16 | 42.01293 | 21.61209 | 3401 ft | 169 kts | 41° |
| 2026-05-05 14:16 | 42.01861 | 21.62545 | 3957 ft | 169 kts | 85° |
| 2026-05-05 14:16 | 42.01764 | 21.64179 | 4304 ft | 187 kts | 100° |
| 2026-05-05 14:17 | 42.01537 | 21.66004 | 4559 ft | 209 kts | 100° |
| 2026-05-05 14:17 | 42.01291 | 21.68035 | 4815 ft | 231 kts | 99° |
| 2026-05-05 14:17 | 42.01026 | 21.70285 | 5133 ft | 255 kts | 99° |
| 2026-05-05 14:17 | 42.00759 | 21.72694 | 5843 ft | 264 kts | 96° |
| 2026-05-05 14:18 | 42.00955 | 21.75190 | 6443 ft | 278 kts | 66° |
| 2026-05-05 14:18 | 42.02114 | 21.77224 | 7166 ft | 283 kts | 37° |
| 2026-05-05 14:18 | 42.03690 | 21.78889 | 8017 ft | 287 kts | 43° |
| 2026-05-05 14:18 | 42.04990 | 21.80905 | 8882 ft | 291 kts | 52° |
| 2026-05-05 14:19 | 42.06210 | 21.83080 | 9784 ft | 292 kts | 53° |
| 2026-05-05 14:19 | 42.07424 | 21.85311 | 10413 ft | 304 kts | 53° |
| 2026-05-05 14:19 | 42.08714 | 21.87709 | 10682 ft | 327 kts | 53° |
| 2026-05-05 14:19 | 42.10096 | 21.90187 | 11310 ft | 334 kts | 50° |
| 2026-05-05 14:20 | 42.11595 | 21.92600 | 12083 ft | 338 kts | 49° |
| 2026-05-05 14:20 | 42.13103 | 21.95049 | 12877 ft | 341 kts | 49° |
| 2026-05-05 14:20 | 42.14613 | 21.97530 | 13631 ft | 344 kts | 49° |
| 2026-05-05 14:20 | 42.16142 | 22.00033 | 14310 ft | 348 kts | 49° |
| 2026-05-05 14:21 | 42.17688 | 22.02565 | 14976 ft | 351 kts | 49° |
| 2026-05-05 14:21 | 42.19242 | 22.05119 | 15644 ft | 354 kts | 49° |
| 2026-05-05 14:21 | 42.20806 | 22.07697 | 16316 ft | 357 kts | 49° |
| 2026-05-05 14:21 | 42.22379 | 22.10299 | 16981 ft | 360 kts | 49° |
| 2026-05-05 14:22 | 42.23966 | 22.12925 | 17642 ft | 363 kts | 49° |
| 2026-05-05 14:22 | 42.25572 | 22.15574 | 18306 ft | 365 kts | 48° |
| 2026-05-05 14:22 | 42.27382 | 22.17959 | 18853 ft | 365 kts | 33° |
| 2026-05-05 14:22 | 42.29643 | 22.19466 | 19407 ft | 364 kts | 14° |
| 2026-05-05 14:23 | 42.32151 | 22.19873 | 19947 ft | 365 kts | 355° |
| 2026-05-05 14:23 | 42.34614 | 22.19101 | 20485 ft | 366 kts | 336° |
| 2026-05-05 14:23 | 42.36772 | 22.17270 | 21031 ft | 370 kts | 320° |
| 2026-05-05 14:23 | 42.38704 | 22.14952 | 21589 ft | 372 kts | 319° |
| 2026-05-05 14:24 | 42.40641 | 22.12620 | 22136 ft | 374 kts | 319° |
| 2026-05-05 14:24 | 42.42595 | 22.10278 | 22656 ft | 377 kts | 319° |
| 2026-05-05 14:24 | 42.44572 | 22.07921 | 23190 ft | 380 kts | 319° |
| 2026-05-05 14:24 | 42.46556 | 22.05545 | 23684 ft | 382 kts | 319° |
| 2026-05-05 14:25 | 42.48557 | 22.03153 | 24133 ft | 384 kts | 319° |
| 2026-05-05 14:25 | 42.50564 | 22.00751 | 24592 ft | 386 kts | 319° |
| 2026-05-05 14:25 | 42.52581 | 21.98328 | 25045 ft | 388 kts | 319° |
| 2026-05-05 14:25 | 42.54606 | 21.95901 | 25477 ft | 390 kts | 319° |
| 2026-05-05 14:26 | 42.56646 | 21.93467 | 25904 ft | 392 kts | 319° |
| 2026-05-05 14:26 | 42.58692 | 21.91005 | 26287 ft | 394 kts | 319° |
| 2026-05-05 14:26 | 42.60747 | 21.88535 | 26686 ft | 396 kts | 319° |
| 2026-05-05 14:26 | 42.62810 | 21.86048 | 27100 ft | 398 kts | 319° |
| 2026-05-05 14:27 | 42.64881 | 21.83547 | 27494 ft | 400 kts | 318° |
| 2026-05-05 14:27 | 42.66969 | 21.81034 | 27896 ft | 402 kts | 318° |
| 2026-05-05 14:27 | 42.69059 | 21.78504 | 28286 ft | 403 kts | 318° |
| 2026-05-05 14:27 | 42.71153 | 21.75962 | 28708 ft | 404 kts | 318° |
| 2026-05-05 14:28 | 42.73257 | 21.73411 | 29123 ft | 406 kts | 318° |
| 2026-05-05 14:28 | 42.75368 | 21.70857 | 29520 ft | 407 kts | 318° |
| 2026-05-05 14:28 | 42.77493 | 21.68290 | 29910 ft | 409 kts | 318° |
| 2026-05-05 14:28 | 42.79622 | 21.65713 | 30253 ft | 411 kts | 317° |
| 2026-05-05 14:29 | 42.81757 | 21.63118 | 30551 ft | 413 kts | 317° |
| 2026-05-05 14:29 | 42.83904 | 21.60507 | 30842 ft | 414 kts | 317° |
| 2026-05-05 14:29 | 42.86057 | 21.57888 | 31133 ft | 416 kts | 317° |
| 2026-05-05 14:29 | 42.88213 | 21.55267 | 31522 ft | 414 kts | 317° |
| 2026-05-05 14:30 | 42.90361 | 21.52652 | 31951 ft | 413 kts | 317° |
| 2026-05-05 14:30 | 42.92496 | 21.50045 | 32367 ft | 411 kts | 317° |
| 2026-05-05 14:30 | 42.94625 | 21.47446 | 32758 ft | 411 kts | 317° |
| 2026-05-05 14:30 | 42.96757 | 21.44839 | 33086 ft | 411 kts | 317° |
| 2026-05-05 14:31 | 42.98885 | 21.42235 | 33456 ft | 411 kts | 318° |
| 2026-05-05 14:31 | 43.01015 | 21.39636 | 33857 ft | 410 kts | 317° |
| 2026-05-05 14:31 | 43.03126 | 21.37033 | 34218 ft | 408 kts | 317° |
| 2026-05-05 14:31 | 43.05232 | 21.34438 | 34554 ft | 408 kts | 317° |
| 2026-05-05 14:32 | 43.07343 | 21.31849 | 34896 ft | 407 kts | 317° |
| 2026-05-05 14:32 | 43.09443 | 21.29263 | 35222 ft | 406 kts | 317° |
| 2026-05-05 14:32 | 43.11540 | 21.26679 | 35529 ft | 406 kts | 317° |
| 2026-05-05 14:32 | 43.13645 | 21.24104 | 35818 ft | 405 kts | 317° |
| 2026-05-05 14:33 | 43.15728 | 21.21532 | 35976 ft | 402 kts | 317° |
| 2026-05-05 14:33 | 43.17801 | 21.18974 | 36005 ft | 400 kts | 317° |
| 2026-05-05 14:33 | 43.21924 | 21.13869 | 35996 ft | 401 kts | 317° |
| 2026-05-05 14:34 | 43.26075 | 21.08738 | 36000 ft | 402 kts | 317° |
| 2026-05-05 14:34 | 43.30221 | 21.03584 | 36003 ft | 402 kts | 317° |
| 2026-05-05 14:35 | 43.34363 | 20.98429 | 35988 ft | 402 kts | 317° |
| 2026-05-05 14:35 | 43.38502 | 20.93277 | 35990 ft | 401 kts | 317° |
| 2026-05-05 14:36 | 43.42578 | 20.88067 | 35994 ft | 399 kts | 313° |
| 2026-05-05 14:36 | 43.46413 | 20.82541 | 35983 ft | 399 kts | 313° |
| 2026-05-05 14:37 | 43.50246 | 20.77002 | 35969 ft | 400 kts | 313° |
| 2026-05-05 14:37 | 43.54085 | 20.71447 | 35968 ft | 400 kts | 313° |
| 2026-05-05 14:38 | 43.57928 | 20.65889 | 35967 ft | 400 kts | 313° |
| 2026-05-05 14:38 | 43.61765 | 20.60319 | 35959 ft | 400 kts | 313° |
| 2026-05-05 14:39 | 43.65599 | 20.54751 | 35957 ft | 400 kts | 313° |
| 2026-05-05 14:39 | 43.69431 | 20.49166 | 35955 ft | 400 kts | 313° |
| 2026-05-05 14:40 | 43.73258 | 20.43580 | 35962 ft | 400 kts | 313° |
| 2026-05-05 14:40 | 43.77084 | 20.37981 | 35959 ft | 400 kts | 313° |
| 2026-05-05 14:41 | 43.80887 | 20.32409 | 35957 ft | 401 kts | 312° |
| 2026-05-05 14:41 | 43.84706 | 20.26783 | 35957 ft | 401 kts | 313° |
| 2026-05-05 14:42 | 43.88537 | 20.21161 | 35954 ft | 401 kts | 312° |
| 2026-05-05 14:42 | 43.92349 | 20.15533 | 35971 ft | 400 kts | 312° |
| 2026-05-05 14:43 | 43.96162 | 20.09907 | 35964 ft | 400 kts | 312° |
| 2026-05-05 14:43 | 43.99966 | 20.04271 | 35963 ft | 400 kts | 312° |
| 2026-05-05 14:44 | 44.03774 | 19.98626 | 35955 ft | 401 kts | 312° |
| 2026-05-05 14:44 | 44.07584 | 19.92963 | 35952 ft | 401 kts | 311° |
| 2026-05-05 14:45 | 44.11390 | 19.87296 | 35954 ft | 401 kts | 311° |
| 2026-05-05 14:45 | 44.15195 | 19.81620 | 35951 ft | 401 kts | 311° |
| 2026-05-05 14:46 | 44.18989 | 19.75933 | 35955 ft | 401 kts | 311° |
| 2026-05-05 14:46 | 44.22793 | 19.70245 | 35949 ft | 401 kts | 311° |
| 2026-05-05 14:47 | 44.26590 | 19.64538 | 35953 ft | 402 kts | 311° |
| 2026-05-05 14:47 | 44.30394 | 19.58818 | 35946 ft | 402 kts | 311° |
| 2026-05-05 14:48 | 44.34200 | 19.53088 | 35945 ft | 403 kts | 311° |
| 2026-05-05 14:48 | 44.38000 | 19.47331 | 35935 ft | 403 kts | 311° |
| 2026-05-05 14:49 | 44.41809 | 19.41572 | 35926 ft | 403 kts | 310° |
| 2026-05-05 14:49 | 44.45616 | 19.35794 | 35922 ft | 404 kts | 310° |
| 2026-05-05 14:50 | 44.49427 | 19.30004 | 35924 ft | 404 kts | 310° |
| 2026-05-05 14:50 | 44.53237 | 19.24207 | 35929 ft | 405 kts | 311° |
| 2026-05-05 14:51 | 44.57045 | 19.18386 | 35923 ft | 405 kts | 311° |
| 2026-05-05 14:51 | 44.60832 | 19.12597 | 35926 ft | 406 kts | 310° |
| 2026-05-05 14:52 | 44.64649 | 19.06754 | 35918 ft | 406 kts | 310° |
| 2026-05-05 14:52 | 44.68460 | 19.00898 | 35917 ft | 406 kts | 310° |
| 2026-05-05 14:53 | 44.72268 | 18.95025 | 35919 ft | 406 kts | 310° |
| 2026-05-05 14:53 | 44.76085 | 18.89156 | 35916 ft | 406 kts | 310° |
| 2026-05-05 14:54 | 44.79887 | 18.83263 | 35927 ft | 407 kts | 310° |
| 2026-05-05 14:54 | 44.83690 | 18.77358 | 35921 ft | 407 kts | 310° |
| 2026-05-05 14:55 | 44.87501 | 18.71456 | 35915 ft | 407 kts | 310° |
| 2026-05-05 14:55 | 44.91308 | 18.65535 | 35911 ft | 407 kts | 310° |
| 2026-05-05 14:56 | 44.95117 | 18.59607 | 35909 ft | 408 kts | 310° |
| 2026-05-05 14:56 | 44.98917 | 18.53651 | 35906 ft | 408 kts | 309° |
| 2026-05-05 14:57 | 45.02730 | 18.47688 | 35910 ft | 409 kts | 310° |
| 2026-05-05 14:57 | 45.06539 | 18.41714 | 35915 ft | 409 kts | 310° |
| 2026-05-05 14:58 | 45.09704 | 18.36730 | 35921 ft | 409 kts | 310° |
| 2026-05-05 14:58 | 45.13517 | 18.30740 | 35921 ft | 410 kts | 310° |
| 2026-05-05 14:59 | 45.17327 | 18.24726 | 35912 ft | 410 kts | 310° |
| 2026-05-05 14:59 | 45.21752 | 18.17703 | 35912 ft | 411 kts | 310° |
| 2026-05-05 15:00 | 45.24954 | 18.12640 | 35913 ft | 412 kts | 310° |
| 2026-05-05 15:00 | 45.28773 | 18.06583 | 35914 ft | 412 kts | 310° |
| 2026-05-05 15:01 | 45.32591 | 18.00510 | 35913 ft | 413 kts | 310° |
| 2026-05-05 15:01 | 45.36406 | 17.94404 | 35906 ft | 414 kts | 310° |
| 2026-05-05 15:02 | 45.40232 | 17.88276 | 35917 ft | 414 kts | 310° |
| 2026-05-05 15:02 | 45.44059 | 17.82135 | 35914 ft | 414 kts | 309° |
| 2026-05-05 15:03 | 45.47884 | 17.75996 | 35933 ft | 415 kts | 310° |
| 2026-05-05 15:03 | 45.51681 | 17.69874 | 35932 ft | 415 kts | 309° |
| 2026-05-05 15:04 | 45.55536 | 17.63655 | 35929 ft | 416 kts | 309° |
| 2026-05-05 15:04 | 45.59346 | 17.57501 | 35937 ft | 417 kts | 309° |
| 2026-05-05 15:05 | 45.65104 | 17.48171 | 35938 ft | 417 kts | 309° |
| 2026-05-05 15:06 | 45.68936 | 17.41931 | 35953 ft | 417 kts | 309° |
| 2026-05-05 15:06 | 45.72767 | 17.35684 | 35943 ft | 418 kts | 309° |
| 2026-05-05 15:07 | 45.76596 | 17.29432 | 35951 ft | 418 kts | 308° |
| 2026-05-05 15:07 | 45.80413 | 17.23159 | 35951 ft | 417 kts | 308° |
| 2026-05-05 15:08 | 45.84237 | 17.16894 | 35959 ft | 418 kts | 308° |
| 2026-05-05 15:08 | 45.88067 | 17.10613 | 35961 ft | 419 kts | 308° |
| 2026-05-05 15:09 | 45.91890 | 17.04301 | 35964 ft | 419 kts | 308° |
| 2026-05-05 15:09 | 45.95720 | 16.97984 | 35965 ft | 419 kts | 308° |
| 2026-05-05 15:10 | 45.99530 | 16.91639 | 35967 ft | 420 kts | 308° |
| 2026-05-05 15:10 | 46.03358 | 16.85300 | 35974 ft | 419 kts | 308° |
| 2026-05-05 15:11 | 46.07156 | 16.78996 | 35970 ft | 419 kts | 308° |
| 2026-05-05 15:11 | 46.10967 | 16.72640 | 35967 ft | 419 kts | 308° |
| 2026-05-05 15:12 | 46.14772 | 16.66272 | 35961 ft | 419 kts | 308° |
| 2026-05-05 15:12 | 46.18572 | 16.59899 | 35965 ft | 419 kts | 308° |
| 2026-05-05 15:13 | 46.22375 | 16.53512 | 35974 ft | 419 kts | 308° |
| 2026-05-05 15:13 | 46.26169 | 16.47115 | 35971 ft | 419 kts | 308° |
| 2026-05-05 15:14 | 46.29965 | 16.40722 | 35959 ft | 419 kts | 308° |
| 2026-05-05 15:14 | 46.33752 | 16.34320 | 35956 ft | 419 kts | 308° |
| 2026-05-05 15:15 | 46.37533 | 16.27921 | 35953 ft | 418 kts | 307° |
| 2026-05-05 15:15 | 46.41354 | 16.21557 | 35944 ft | 419 kts | 308° |
| 2026-05-05 15:16 | 46.45184 | 16.15191 | 35947 ft | 419 kts | 308° |
| 2026-05-05 15:16 | 46.49015 | 16.08806 | 35939 ft | 420 kts | 308° |
| 2026-05-05 15:17 | 46.52844 | 16.02401 | 35930 ft | 420 kts | 308° |
| 2026-05-05 15:17 | 46.56646 | 15.96033 | 35926 ft | 420 kts | 308° |
| 2026-05-05 15:18 | 46.60473 | 15.89608 | 35936 ft | 420 kts | 308° |
| 2026-05-05 15:18 | 46.64287 | 15.83162 | 35931 ft | 420 kts | 308° |
| 2026-05-05 15:19 | 46.68112 | 15.76728 | 35930 ft | 420 kts | 308° |
| 2026-05-05 15:19 | 46.71928 | 15.70277 | 35937 ft | 420 kts | 307° |
| 2026-05-05 15:20 | 46.75737 | 15.63821 | 35904 ft | 420 kts | 308° |
| 2026-05-05 15:20 | 46.79542 | 15.57349 | 35895 ft | 420 kts | 307° |
| 2026-05-05 15:21 | 46.83342 | 15.50870 | 35890 ft | 420 kts | 308° |
| 2026-05-05 15:21 | 46.87135 | 15.44389 | 35885 ft | 420 kts | 308° |
| 2026-05-05 15:22 | 46.90932 | 15.37906 | 35883 ft | 420 kts | 308° |
| 2026-05-05 15:22 | 46.94726 | 15.31417 | 35881 ft | 419 kts | 307° |
| 2026-05-05 15:23 | 46.98479 | 15.24952 | 35887 ft | 412 kts | 306° |
| 2026-05-05 15:23 | 47.02215 | 15.18503 | 35890 ft | 419 kts | 307° |
| 2026-05-05 15:24 | 47.05996 | 15.11977 | 35887 ft | 421 kts | 307° |
| 2026-05-05 15:24 | 47.09788 | 15.05414 | 35890 ft | 422 kts | 307° |
| 2026-05-05 15:25 | 47.13576 | 14.98836 | 35895 ft | 422 kts | 307° |
| 2026-05-05 15:25 | 47.17352 | 14.92249 | 35905 ft | 421 kts | 307° |
| 2026-05-05 15:26 | 47.21121 | 14.85675 | 35908 ft | 420 kts | 307° |
| 2026-05-05 15:26 | 47.24882 | 14.79102 | 35904 ft | 420 kts | 307° |
| 2026-05-05 15:27 | 47.28625 | 14.72518 | 35912 ft | 420 kts | 306° |
| 2026-05-05 15:27 | 47.32379 | 14.65922 | 35903 ft | 420 kts | 306° |
| 2026-05-05 15:28 | 47.36128 | 14.59328 | 35901 ft | 420 kts | 306° |
| 2026-05-05 15:28 | 47.39851 | 14.52761 | 35886 ft | 420 kts | 306° |
| 2026-05-05 15:29 | 47.43599 | 14.46137 | 35877 ft | 421 kts | 306° |
| 2026-05-05 15:29 | 47.47336 | 14.39478 | 35850 ft | 421 kts | 306° |
| 2026-05-05 15:30 | 47.51080 | 14.32831 | 35838 ft | 421 kts | 306° |
| 2026-05-05 15:30 | 47.54810 | 14.26159 | 35834 ft | 421 kts | 306° |
| 2026-05-05 15:31 | 47.58552 | 14.19491 | 35822 ft | 421 kts | 306° |
| 2026-05-05 15:31 | 47.62290 | 14.12802 | 35793 ft | 421 kts | 306° |
| 2026-05-05 15:32 | 47.66013 | 14.06095 | 35785 ft | 421 kts | 306° |
| 2026-05-05 15:32 | 47.69743 | 13.99384 | 35780 ft | 421 kts | 306° |
| 2026-05-05 15:33 | 47.73468 | 13.92676 | 35776 ft | 421 kts | 306° |
| 2026-05-05 15:33 | 47.77181 | 13.85953 | 35770 ft | 421 kts | 306° |
| 2026-05-05 15:34 | 47.80890 | 13.79213 | 35767 ft | 421 kts | 306° |
| 2026-05-05 15:34 | 47.84596 | 13.72464 | 35760 ft | 422 kts | 306° |
| 2026-05-05 15:35 | 47.88379 | 13.65597 | 35764 ft | 433 kts | 306° |
| 2026-05-05 15:35 | 47.92194 | 13.58601 | 35759 ft | 436 kts | 305° |
| 2026-05-05 15:36 | 47.96025 | 13.51581 | 35754 ft | 436 kts | 305° |
| 2026-05-05 15:36 | 47.99851 | 13.44551 | 35755 ft | 437 kts | 306° |
| 2026-05-05 15:37 | 48.03654 | 13.37558 | 35753 ft | 436 kts | 305° |
| 2026-05-05 15:37 | 48.07472 | 13.30495 | 35759 ft | 437 kts | 305° |
| 2026-05-05 15:38 | 48.11291 | 13.23417 | 35754 ft | 437 kts | 305° |
| 2026-05-05 15:38 | 48.15103 | 13.16325 | 35750 ft | 438 kts | 305° |
| 2026-05-05 15:39 | 48.18924 | 13.09225 | 35756 ft | 437 kts | 305° |
| 2026-05-05 15:39 | 48.20798 | 13.05711 | 35745 ft | 425 kts | 304° |
| 2026-05-05 15:39 | 48.22629 | 13.02278 | 35752 ft | 419 kts | 304° |
| 2026-05-05 15:40 | 48.26454 | 12.95738 | 35754 ft | 414 kts | 308° |
| 2026-05-05 15:40 | 48.30275 | 12.89308 | 35750 ft | 412 kts | 307° |
| 2026-05-05 15:41 | 48.34074 | 12.82859 | 35752 ft | 412 kts | 307° |
| 2026-05-05 15:41 | 48.37869 | 12.76393 | 35762 ft | 412 kts | 307° |
| 2026-05-05 15:42 | 48.41664 | 12.69915 | 35752 ft | 413 kts | 307° |
| 2026-05-05 15:42 | 48.45425 | 12.63310 | 35758 ft | 419 kts | 298° |
| 2026-05-05 15:43 | 48.47875 | 12.55317 | 35757 ft | 427 kts | 289° |
| 2026-05-05 15:43 | 48.50562 | 12.47253 | 35758 ft | 437 kts | 300° |
| 2026-05-05 15:44 | 48.53962 | 12.39639 | 35758 ft | 437 kts | 300° |
| 2026-05-05 15:44 | 48.57332 | 12.31999 | 35763 ft | 437 kts | 300° |
| 2026-05-05 15:45 | 48.60689 | 12.24345 | 35760 ft | 437 kts | 300° |
| 2026-05-05 15:45 | 48.64051 | 12.16677 | 35764 ft | 438 kts | 299° |
| 2026-05-05 15:46 | 48.67400 | 12.08983 | 35748 ft | 438 kts | 299° |
| 2026-05-05 15:46 | 48.70753 | 12.01267 | 35761 ft | 440 kts | 299° |
| 2026-05-05 15:47 | 48.73566 | 11.94788 | 35796 ft | 448 kts | 299° |
| 2026-05-05 15:47 | 48.77000 | 11.86859 | 35800 ft | 451 kts | 299° |
| 2026-05-05 15:48 | 48.80451 | 11.78872 | 35801 ft | 454 kts | 299° |
| 2026-05-05 15:48 | 48.83898 | 11.70848 | 35803 ft | 454 kts | 299° |
| 2026-05-05 15:49 | 48.87350 | 11.62807 | 35804 ft | 454 kts | 299° |
| 2026-05-05 15:49 | 48.90792 | 11.54764 | 35792 ft | 454 kts | 299° |
| 2026-05-05 15:50 | 48.94239 | 11.46703 | 35595 ft | 455 kts | 299° |
| 2026-05-05 15:50 | 48.95959 | 11.42650 | 35340 ft | 457 kts | 298° |
| 2026-05-05 15:50 | 48.97686 | 11.38586 | 35084 ft | 458 kts | 299° |
| 2026-05-05 15:50 | 48.99417 | 11.34509 | 34821 ft | 459 kts | 299° |
| 2026-05-05 15:51 | 49.01144 | 11.30419 | 34322 ft | 459 kts | 299° |
| 2026-05-05 15:51 | 49.02877 | 11.26323 | 33800 ft | 460 kts | 299° |
| 2026-05-05 15:51 | 49.04611 | 11.22213 | 33236 ft | 462 kts | 299° |
| 2026-05-05 15:51 | 49.06348 | 11.18076 | 32733 ft | 465 kts | 299° |
| 2026-05-05 15:52 | 49.08104 | 11.13919 | 32215 ft | 467 kts | 299° |
| 2026-05-05 15:52 | 49.09868 | 11.09742 | 31700 ft | 469 kts | 299° |
| 2026-05-05 15:52 | 49.11632 | 11.05534 | 31185 ft | 473 kts | 299° |
| 2026-05-05 15:52 | 49.13409 | 11.01294 | 30697 ft | 476 kts | 299° |
| 2026-05-05 15:53 | 49.15197 | 10.97026 | 30183 ft | 478 kts | 299° |
| 2026-05-05 15:53 | 49.16992 | 10.92725 | 29626 ft | 481 kts | 299° |
| 2026-05-05 15:53 | 49.18796 | 10.88409 | 29093 ft | 483 kts | 299° |
| 2026-05-05 15:53 | 49.20598 | 10.84080 | 28612 ft | 481 kts | 299° |
| 2026-05-05 15:54 | 49.22374 | 10.79805 | 28094 ft | 472 kts | 299° |
| 2026-05-05 15:54 | 49.24096 | 10.75646 | 27596 ft | 466 kts | 299° |
| 2026-05-05 15:54 | 49.25831 | 10.71478 | 27086 ft | 462 kts | 300° |
| 2026-05-05 15:54 | 49.27543 | 10.67347 | 26582 ft | 457 kts | 300° |
| 2026-05-05 15:55 | 49.29236 | 10.63246 | 26057 ft | 453 kts | 300° |
| 2026-05-05 15:55 | 49.30910 | 10.59181 | 25541 ft | 450 kts | 299° |
| 2026-05-05 15:55 | 49.32570 | 10.55144 | 25025 ft | 445 kts | 300° |
| 2026-05-05 15:55 | 49.34202 | 10.51173 | 24596 ft | 436 kts | 299° |
| 2026-05-05 15:56 | 49.35796 | 10.47286 | 24302 ft | 423 kts | 299° |
| 2026-05-05 15:56 | 49.37415 | 10.43589 | 23573 ft | 415 kts | 303° |
| 2026-05-05 15:56 | 49.39079 | 10.40026 | 23241 ft | 408 kts | 303° |
| 2026-05-05 15:56 | 49.40718 | 10.36473 | 23016 ft | 408 kts | 302° |
| 2026-05-05 15:57 | 49.42341 | 10.32909 | 22690 ft | 406 kts | 302° |
| 2026-05-05 15:57 | 49.43960 | 10.29360 | 22402 ft | 405 kts | 303° |
| 2026-05-05 15:57 | 49.45567 | 10.25835 | 22101 ft | 402 kts | 302° |
| 2026-05-05 15:57 | 49.47160 | 10.22316 | 21818 ft | 400 kts | 302° |
| 2026-05-05 15:58 | 49.48744 | 10.18821 | 21529 ft | 398 kts | 302° |
| 2026-05-05 15:58 | 49.50318 | 10.15351 | 21245 ft | 391 kts | 303° |
| 2026-05-05 15:58 | 49.51857 | 10.11956 | 20967 ft | 384 kts | 302° |
| 2026-05-05 15:58 | 49.53371 | 10.08597 | 20679 ft | 381 kts | 302° |
| 2026-05-05 15:59 | 49.54879 | 10.05254 | 20245 ft | 380 kts | 302° |
| 2026-05-05 15:59 | 49.56389 | 10.01909 | 19823 ft | 379 kts | 302° |
| 2026-05-05 15:59 | 49.57887 | 9.98580 | 19423 ft | 377 kts | 302° |
| 2026-05-05 15:59 | 49.59374 | 9.95270 | 19030 ft | 374 kts | 302° |
| 2026-05-05 16:00 | 49.60848 | 9.91988 | 18537 ft | 370 kts | 302° |
| 2026-05-05 16:00 | 49.62302 | 9.88748 | 18013 ft | 365 kts | 302° |
| 2026-05-05 16:00 | 49.63743 | 9.85537 | 17570 ft | 363 kts | 302° |
| 2026-05-05 16:00 | 49.65175 | 9.82347 | 17149 ft | 360 kts | 302° |
| 2026-05-05 16:01 | 49.66595 | 9.79181 | 16729 ft | 358 kts | 302° |
| 2026-05-05 16:01 | 49.68003 | 9.76031 | 16315 ft | 356 kts | 302° |
| 2026-05-05 16:01 | 49.69400 | 9.72889 | 15922 ft | 354 kts | 302° |
| 2026-05-05 16:01 | 49.70798 | 9.69719 | 15513 ft | 354 kts | 302° |
| 2026-05-05 16:02 | 49.72176 | 9.66601 | 15143 ft | 354 kts | 302° |
| 2026-05-05 16:02 | 49.73569 | 9.63469 | 14794 ft | 354 kts | 302° |
| 2026-05-05 16:02 | 49.74966 | 9.60346 | 14422 ft | 351 kts | 302° |
| 2026-05-05 16:02 | 49.76345 | 9.57246 | 14040 ft | 349 kts | 302° |
| 2026-05-05 16:03 | 49.77710 | 9.54161 | 13668 ft | 346 kts | 302° |
| 2026-05-05 16:03 | 49.79056 | 9.51113 | 13172 ft | 339 kts | 302° |
| 2026-05-05 16:03 | 49.80355 | 9.48169 | 12917 ft | 324 kts | 302° |
| 2026-05-05 16:03 | 49.81612 | 9.45322 | 12380 ft | 317 kts | 302° |
| 2026-05-05 16:04 | 49.82837 | 9.42529 | 11889 ft | 311 kts | 302° |
| 2026-05-05 16:04 | 49.84049 | 9.39777 | 11523 ft | 308 kts | 302° |
| 2026-05-05 16:04 | 49.85237 | 9.37083 | 11155 ft | 308 kts | 302° |
| 2026-05-05 16:04 | 49.86305 | 9.34181 | 10792 ft | 303 kts | 289° |
| 2026-05-05 16:05 | 49.86956 | 9.31114 | 10696 ft | 299 kts | 284° |
| 2026-05-05 16:05 | 49.87533 | 9.28061 | 10591 ft | 299 kts | 284° |
| 2026-05-05 16:05 | 49.88352 | 9.25112 | 10364 ft | 300 kts | 302° |
| 2026-05-05 16:05 | 49.89818 | 9.22826 | 10133 ft | 301 kts | 326° |
| 2026-05-05 16:06 | 49.91747 | 9.21592 | 9894 ft | 303 kts | 347° |
| 2026-05-05 16:06 | 49.93820 | 9.21008 | 9705 ft | 303 kts | 350° |
| 2026-05-05 16:06 | 49.95898 | 9.20447 | 9557 ft | 302 kts | 351° |
| 2026-05-05 16:06 | 49.97963 | 9.19902 | 9055 ft | 299 kts | 351° |
| 2026-05-05 16:07 | 50.00009 | 9.19417 | 8560 ft | 296 kts | 351° |
| 2026-05-05 16:07 | 50.02041 | 9.18950 | 8072 ft | 294 kts | 351° |
| 2026-05-05 16:07 | 50.04054 | 9.18492 | 7591 ft | 292 kts | 351° |
| 2026-05-05 16:07 | 50.06061 | 9.18047 | 7117 ft | 292 kts | 351° |
| 2026-05-05 16:08 | 50.08072 | 9.17589 | 6655 ft | 293 kts | 347° |
| 2026-05-05 16:08 | 50.09932 | 9.16391 | 6188 ft | 290 kts | 323° |
| 2026-05-05 16:08 | 50.11299 | 9.14196 | 5695 ft | 276 kts | 300° |
| 2026-05-05 16:08 | 50.12101 | 9.11565 | 5233 ft | 263 kts | 289° |
| 2026-05-05 16:09 | 50.12763 | 9.08983 | 5043 ft | 250 kts | 289° |
| 2026-05-05 16:09 | 50.13387 | 9.06551 | 5012 ft | 235 kts | 288° |
| 2026-05-05 16:09 | 50.13787 | 9.04162 | 5014 ft | 225 kts | 275° |
| 2026-05-05 16:09 | 50.13854 | 9.01748 | 5021 ft | 222 kts | 264° |
| 2026-05-05 16:10 | 50.13626 | 8.99380 | 5021 ft | 220 kts | 252° |
| 2026-05-05 16:10 | 50.13147 | 8.97158 | 5022 ft | 211 kts | 247° |
| 2026-05-05 16:10 | 50.12627 | 8.95091 | 5018 ft | 200 kts | 246° |
| 2026-05-05 16:10 | 50.12136 | 8.93077 | 4928 ft | 198 kts | 247° |
| 2026-05-05 16:11 | 50.11664 | 8.91072 | 4707 ft | 197 kts | 248° |
| 2026-05-05 16:11 | 50.10249 | 8.85042 | 3916 ft | 198 kts | 248° |
| 2026-05-05 16:12 | 50.09776 | 8.83032 | 3652 ft | 197 kts | 248° |
| 2026-05-05 16:12 | 50.08861 | 8.79147 | 3147 ft | 185 kts | 248° |
| 2026-05-05 16:13 | 50.07597 | 8.73800 | 2444 ft | 168 kts | 249° |
| 2026-05-05 16:13 | 50.07195 | 8.72098 | 2212 ft | 166 kts | 249° |
| 2026-05-05 16:13 | 50.06811 | 8.70476 | 2009 ft | 152 kts | 249° |
| 2026-05-05 16:14 | 50.06135 | 8.67626 | 1624 ft | 134 kts | 249° |
| 2026-05-05 16:14 | 50.05501 | 8.64953 | 1275 ft | 132 kts | 249° |
| 2026-05-05 16:15 | 50.04866 | 8.62291 | 905 ft | 131 kts | 249° |
| 2026-05-05 16:15 | 50.04226 | 8.59592 | 556 ft | 137 kts | 250° |
| 2026-05-05 16:16 | 50.03610 | 8.56993 | 356 ft | 100 kts | 250° |
| 2026-05-05 16:16 | 50.03313 | 8.55722 | 346 ft | 40 kts | 259° |
| 2026-05-05 16:17 | 50.03344 | 8.55232 | 342 ft | 5 kts | 280° |
| 2026-05-05 16:17 | 50.03350 | 8.55180 | 350 ft | 8 kts | 280° |
| 2026-05-05 16:18 | 50.03352 | 8.54887 | 337 ft | 18 kts | 252° |
| 2026-05-05 16:18 | 50.03304 | 8.54681 | 333 ft | 22 kts | 249° |
| 2026-05-05 16:18 | 50.03346 | 8.54461 | 335 ft | 9 kts | 340° |
| 2026-05-05 16:19 | 50.03380 | 8.54442 | 337 ft | 0 kts | 340° |
| 2026-05-05 16:20 | 50.03393 | 8.54434 | 339 ft | 6 kts | 340° |
| 2026-05-05 16:20 | 50.03527 | 8.54357 | 350 ft | 14 kts | 340° |
| 2026-05-05 16:21 | 50.03652 | 8.54314 | 342 ft | 0 kts | 45° |
| 2026-05-05 16:22 | 50.03671 | 8.54369 | 349 ft | 9 kts | 70° |
| 2026-05-05 16:23 | 50.03716 | 8.54562 | 355 ft | 13 kts | 70° |
| 2026-05-05 16:23 | 50.03748 | 8.54695 | 348 ft | 12 kts | 69° |
| 2026-05-05 16:23 | 50.03806 | 8.54937 | 353 ft | 13 kts | 69° |
| 2026-05-05 16:24 | 50.03836 | 8.55061 | 348 ft | 12 kts | 69° |
| 2026-05-05 16:24 | 50.03864 | 8.55176 | 350 ft | 11 kts | 69° |
| 2026-05-05 16:24 | 50.03908 | 8.55361 | 349 ft | 5 kts | 70° |
| 2026-05-05 16:25 | 50.03933 | 8.55468 | 352 ft | 15 kts | 70° |
| 2026-05-05 16:25 | 50.04017 | 8.55823 | 356 ft | 13 kts | 70° |
| 2026-05-05 16:25 | 50.04033 | 8.55887 | 353 ft | 0 kts | 69° |
| 2026-05-05 16:27 | 50.04034 | 8.55894 | 350 ft | 3 kts | 69° |
| 2026-05-05 16:27 | 50.04053 | 8.55951 | 354 ft | 7 kts | 48° |
| 2026-05-05 16:27 | 50.04100 | 8.55966 | 352 ft | 9 kts | 350° |
| 2026-05-05 16:27 | 50.04179 | 8.55923 | 354 ft | 15 kts | 345° |
| 2026-05-05 16:28 | 50.04279 | 8.55960 | 356 ft | 13 kts | 0° |
| 2026-05-05 16:28 | 50.04368 | 8.55915 | 360 ft | 15 kts | 341° |
| 2026-05-05 16:28 | 50.04479 | 8.55934 | 359 ft | 15 kts | 17° |
| 2026-05-05 16:28 | 50.04562 | 8.56004 | 360 ft | 12 kts | 59° |
| 2026-05-05 16:29 | 50.04592 | 8.56122 | 362 ft | 11 kts | 69° |
| 2026-05-05 16:29 | 50.04630 | 8.56162 | 362 ft | 8 kts | 347° |
| 2026-05-05 16:29 | 50.04672 | 8.56140 | 359 ft | 4 kts | 341° |
| 2026-05-05 16:29 | 50.04681 | 8.56136 | 357 ft | 0 kts | 341° |